sensor_id;sensor_type;location;lat;lon;timestamp;pressure;altitude;pressure_sealevel;temperature;humidity
16595;BME280;8410;52.532;13.336;2022-12-18T00:01:15;102851.22;;;-0.24;78.33
16595;BME280;8410;52.532;13.336;2022-12-18T00:03:43;102847.91;;;-0.60;78.44
16595;BME280;8410;52.532;13.336;2022-12-18T00:06:12;102851.56;;;-0.48;79.50
16595;BME280;8410;52.532;13.336;2022-12-18T00:08:40;102858.41;;;-0.28;78.17
16595;BME280;8410;52.532;13.336;2022-12-18T00:11:11;102859.97;;;-0.39;78.60
16595;BME280;8410;52.532;13.336;2022-12-18T00:13:39;102863.47;;;-0.28;78.33
16595;BME280;8410;52.532;13.336;2022-12-18T00:16:09;102869.69;;;-0.25;80.00
16595;BME280;8410;52.532;13.336;2022-12-18T00:18:37;102871.38;;;-0.53;79.43
16595;BME280;8410;52.532;13.336;2022-12-18T00:21:07;102857.78;;;-0.26;80.24
16595;BME280;8410;52.532;13.336;2022-12-18T00:23:36;102852.03;;;-0.14;78.42
16595;BME280;8410;52.532;13.336;2022-12-18T00:26:07;102852.03;;;-0.14;78.83
16595;BME280;8410;52.532;13.336;2022-12-18T00:28:37;102851.22;;;-0.24;79.63
16595;BME280;8410;52.532;13.336;2022-12-18T00:31:07;102860.91;;;-1.65;79.07
16595;BME280;8410;52.532;13.336;2022-12-18T00:33:35;102873.44;;;-2.60;83.33
16595;BME280;8410;52.532;13.336;2022-12-18T00:36:05;102866.09;;;-2.83;82.94
16595;BME280;8410;52.532;13.336;2022-12-18T00:38:33;102859.75;;;-2.71;87.80
16595;BME280;8410;52.532;13.336;2022-12-18T00:41:01;102858.41;;;-1.73;83.03
16595;BME280;8410;52.532;13.336;2022-12-18T00:43:29;102865.56;;;-2.72;85.22
16595;BME280;8410;52.532;13.336;2022-12-18T00:45:57;102872.81;;;-2.75;84.55
16595;BME280;8410;52.532;13.336;2022-12-18T00:48:24;102857.81;;;-1.71;83.39
16595;BME280;8410;52.532;13.336;2022-12-18T00:50:52;102853.66;;;-1.17;80.07
16595;BME280;8410;52.532;13.336;2022-12-18T00:53:19;102860.66;;;-1.23;78.80
16595;BME280;8410;52.532;13.336;2022-12-18T00:55:47;102847.66;;;-1.53;77.68
16595;BME280;8410;52.532;13.336;2022-12-18T00:58:17;102846.31;;;-1.59;79.69
16595;BME280;8410;52.532;13.336;2022-12-18T01:00:44;102852.84;;;-1.43;79.99
16595;BME280;8410;52.532;13.336;2022-12-18T01:03:14;102854.81;;;-1.13;79.66
16595;BME280;8410;52.532;13.336;2022-12-18T01:05:42;102856.31;;;-1.06;79.99
16595;BME280;8410;52.532;13.336;2022-12-18T01:08:09;102853.50;;;-0.82;78.69
16595;BME280;8410;52.532;13.336;2022-12-18T01:10:39;102858.94;;;-1.05;77.87
16595;BME280;8410;52.532;13.336;2022-12-18T01:13:07;102865.50;;;-1.52;79.91
16595;BME280;8410;52.532;13.336;2022-12-18T01:15:35;102875.31;;;-1.98;79.37
16595;BME280;8410;52.532;13.336;2022-12-18T01:18:02;102879.78;;;-3.39;82.73
16595;BME280;8410;52.532;13.336;2022-12-18T01:20:31;102870.84;;;-2.10;84.68
16595;BME280;8410;52.532;13.336;2022-12-18T01:22:59;102881.56;;;-1.86;81.34
16595;BME280;8410;52.532;13.336;2022-12-18T01:25:26;102888.38;;;-1.94;80.65
16595;BME280;8410;52.532;13.336;2022-12-18T01:27:54;102886.16;;;-1.65;80.41
16595;BME280;8410;52.532;13.336;2022-12-18T01:30:21;102890.72;;;-1.43;79.77
16595;BME280;8410;52.532;13.336;2022-12-18T01:32:49;102882.72;;;-1.57;79.64
16595;BME280;8410;52.532;13.336;2022-12-18T01:35:16;102894.63;;;-1.90;79.00
16595;BME280;8410;52.532;13.336;2022-12-18T01:37:45;102894.41;;;-3.44;82.91
16595;BME280;8410;52.532;13.336;2022-12-18T01:40:13;102896.59;;;-3.47;86.49
16595;BME280;8410;52.532;13.336;2022-12-18T01:42:40;102893.09;;;-2.82;85.72
16595;BME280;8410;52.532;13.336;2022-12-18T01:45:23;102893.03;;;-2.49;82.04
16595;BME280;8410;52.532;13.336;2022-12-18T01:47:53;102899.91;;;-2.22;82.40
16595;BME280;8410;52.532;13.336;2022-12-18T01:50:24;102890.31;;;-1.57;81.25
16595;BME280;8410;52.532;13.336;2022-12-18T01:52:56;102892.13;;;-1.11;79.78
16595;BME280;8410;52.532;13.336;2022-12-18T01:55:26;102887.63;;;-0.96;78.46
16595;BME280;8410;52.532;13.336;2022-12-18T01:57:58;102893.56;;;-0.95;78.48
16595;BME280;8410;52.532;13.336;2022-12-18T02:00:27;102897.06;;;-1.12;78.76
16595;BME280;8410;52.532;13.336;2022-12-18T02:02:55;102899.19;;;-2.21;78.45
16595;BME280;8410;52.532;13.336;2022-12-18T02:05:29;102900.13;;;-1.68;80.60
16595;BME280;8410;52.532;13.336;2022-12-18T02:08:08;102896.38;;;-1.63;78.76
16595;BME280;8410;52.532;13.336;2022-12-18T02:10:43;102888.69;;;-1.65;79.59
16595;BME280;8410;52.532;13.336;2022-12-18T02:13:20;102896.34;;;-1.37;79.28
16595;BME280;8410;52.532;13.336;2022-12-18T02:15:54;102901.09;;;-2.36;78.90
16595;BME280;8410;52.532;13.336;2022-12-18T02:18:27;102896.06;;;-1.40;79.64
16595;BME280;8410;52.532;13.336;2022-12-18T02:21:00;102907.78;;;-1.15;77.84
16595;BME280;8410;52.532;13.336;2022-12-18T02:23:44;102901.44;;;-1.63;79.03
16595;BME280;8410;52.532;13.336;2022-12-18T02:26:22;102895.28;;;-1.22;78.74
16595;BME280;8410;52.532;13.336;2022-12-18T02:28:55;102898.75;;;-2.17;79.23
16595;BME280;8410;52.532;13.336;2022-12-18T02:31:27;102903.63;;;-2.36;78.41
16595;BME280;8410;52.532;13.336;2022-12-18T02:33:59;102914.94;;;-2.66;81.57
16595;BME280;8410;52.532;13.336;2022-12-18T02:36:28;102920.56;;;-2.68;84.27
16595;BME280;8410;52.532;13.336;2022-12-18T02:38:56;102914.84;;;-1.73;83.38
16595;BME280;8410;52.532;13.336;2022-12-18T02:41:26;102918.94;;;-2.17;83.11
16595;BME280;8410;52.532;13.336;2022-12-18T02:43:57;102928.50;;;-3.14;82.17
16595;BME280;8410;52.532;13.336;2022-12-18T02:46:28;102934.47;;;-3.86;85.19
16595;BME280;8410;52.532;13.336;2022-12-18T02:49:02;102929.91;;;-3.49;87.13
16595;BME280;8410;52.532;13.336;2022-12-18T02:51:38;102924.09;;;-3.08;85.89
16595;BME280;8410;52.532;13.336;2022-12-18T02:54:10;102943.56;;;-3.47;85.50
16595;BME280;8410;52.532;13.336;2022-12-18T02:56:48;102940.59;;;-3.84;88.42
16595;BME280;8410;52.532;13.336;2022-12-18T02:59:19;102925.59;;;-2.77;85.95
16595;BME280;8410;52.532;13.336;2022-12-18T03:01:52;102919.72;;;-2.60;84.45
16595;BME280;8410;52.532;13.336;2022-12-18T03:04:26;102921.63;;;-2.24;83.09
16595;BME280;8410;52.532;13.336;2022-12-18T03:06:58;102923.13;;;-2.93;85.13
16595;BME280;8410;52.532;13.336;2022-12-18T03:09:33;102921.13;;;-2.79;84.56
16595;BME280;8410;52.532;13.336;2022-12-18T03:12:07;102938.88;;;-3.92;86.74
16595;BME280;8410;52.532;13.336;2022-12-18T03:14:53;102945.28;;;-4.18;89.34
16595;BME280;8410;52.532;13.336;2022-12-18T03:17:25;102939.63;;;-4.71;90.06
16595;BME280;8410;52.532;13.336;2022-12-18T03:19:56;102935.69;;;-4.30;91.51
16595;BME280;8410;52.532;13.336;2022-12-18T03:22:27;102932.13;;;-3.68;90.19
16595;BME280;8410;52.532;13.336;2022-12-18T03:24:57;102931.66;;;-2.33;85.78
16595;BME280;8410;52.532;13.336;2022-12-18T03:27:30;102929.66;;;-1.93;82.90
16595;BME280;8410;52.532;13.336;2022-12-18T03:30:02;102922.84;;;-1.51;80.84
16595;BME280;8410;52.532;13.336;2022-12-18T03:32:38;102931.72;;;-2.07;79.59
16595;BME280;8410;52.532;13.336;2022-12-18T03:35:08;102928.50;;;-1.71;80.29
16595;BME280;8410;52.532;13.336;2022-12-18T03:37:37;102923.66;;;-2.37;80.07
16595;BME280;8410;52.532;13.336;2022-12-18T03:40:06;102921.03;;;-1.61;79.40
16595;BME280;8410;52.532;13.336;2022-12-18T03:42:43;102914.78;;;-1.29;77.67
16595;BME280;8410;52.532;13.336;2022-12-18T03:45:19;102918.03;;;-1.22;78.41
16595;BME280;8410;52.532;13.336;2022-12-18T03:47:59;102923.97;;;-1.21;77.64
16595;BME280;8410;52.532;13.336;2022-12-18T03:50:35;102935.25;;;-2.22;77.22
16595;BME280;8410;52.532;13.336;2022-12-18T03:53:14;102929.94;;;-2.67;78.36
16595;BME280;8410;52.532;13.336;2022-12-18T03:55:44;102939.50;;;-3.29;84.28
16595;BME280;8410;52.532;13.336;2022-12-18T03:58:18;102925.69;;;-2.51;82.47
16595;BME280;8410;52.532;13.336;2022-12-18T04:00:48;102931.34;;;-2.36;86.45
16595;BME280;8410;52.532;13.336;2022-12-18T04:03:18;102939.81;;;-4.14;84.95
16595;BME280;8410;52.532;13.336;2022-12-18T04:05:52;102940.56;;;-3.27;86.31
16595;BME280;8410;52.532;13.336;2022-12-18T04:08:22;102936.34;;;-3.20;86.61
16595;BME280;8410;52.532;13.336;2022-12-18T04:10:51;102934.13;;;-2.83;85.11
16595;BME280;8410;52.532;13.336;2022-12-18T04:13:23;102937.09;;;-1.86;82.08
16595;BME280;8410;52.532;13.336;2022-12-18T04:15:51;102932.19;;;-1.59;79.35
16595;BME280;8410;52.532;13.336;2022-12-18T04:18:19;102937.84;;;-1.70;78.73
16595;BME280;8410;52.532;13.336;2022-12-18T04:20:46;102963.19;;;-2.12;79.36
16595;BME280;8410;52.532;13.336;2022-12-18T04:23:13;102962.16;;;-3.14;79.59
16595;BME280;8410;52.532;13.336;2022-12-18T04:25:41;102960.63;;;-4.47;86.15
16595;BME280;8410;52.532;13.336;2022-12-18T04:28:08;102960.09;;;-3.34;84.91
16595;BME280;8410;52.532;13.336;2022-12-18T04:30:37;102942.88;;;-2.89;83.85
16595;BME280;8410;52.532;13.336;2022-12-18T04:33:08;102946.28;;;-2.88;81.39
16595;BME280;8410;52.532;13.336;2022-12-18T04:35:36;102964.63;;;-3.22;80.49
16595;BME280;8410;52.532;13.336;2022-12-18T04:38:05;102955.84;;;-2.77;85.11
16595;BME280;8410;52.532;13.336;2022-12-18T04:40:35;102964.38;;;-3.33;82.20
16595;BME280;8410;52.532;13.336;2022-12-18T04:43:03;102963.00;;;-3.38;82.68
16595;BME280;8410;52.532;13.336;2022-12-18T04:45:31;102965.47;;;-3.06;82.63
16595;BME280;8410;52.532;13.336;2022-12-18T04:48:00;102949.97;;;-2.18;80.74
16595;BME280;8410;52.532;13.336;2022-12-18T04:50:29;102954.25;;;-2.17;80.04
16595;BME280;8410;52.532;13.336;2022-12-18T04:52:57;102949.72;;;-1.95;79.86
16595;BME280;8410;52.532;13.336;2022-12-18T04:55:24;102947.91;;;-2.64;79.64
16595;BME280;8410;52.532;13.336;2022-12-18T04:57:52;102945.78;;;-2.26;81.56
16595;BME280;8410;52.532;13.336;2022-12-18T05:00:19;102946.59;;;-1.92;78.58
16595;BME280;8410;52.532;13.336;2022-12-18T05:02:47;102972.22;;;-3.14;80.27
16595;BME280;8410;52.532;13.336;2022-12-18T05:05:16;102967.75;;;-3.16;83.41
16595;BME280;8410;52.532;13.336;2022-12-18T05:07:43;102987.38;;;-3.29;81.94
16595;BME280;8410;52.532;13.336;2022-12-18T05:10:11;102980.09;;;-3.83;84.94
16595;BME280;8410;52.532;13.336;2022-12-18T05:12:38;102982.78;;;-3.49;84.26
16595;BME280;8410;52.532;13.336;2022-12-18T05:15:27;102989.81;;;-4.02;83.49
16595;BME280;8410;52.532;13.336;2022-12-18T05:17:55;102995.13;;;-3.44;85.04
16595;BME280;8410;52.532;13.336;2022-12-18T05:20:25;102996.56;;;-3.46;83.51
16595;BME280;8410;52.532;13.336;2022-12-18T05:22:53;102997.47;;;-3.05;82.77
16595;BME280;8410;52.532;13.336;2022-12-18T05:25:21;103002.41;;;-3.22;81.32
16595;BME280;8410;52.532;13.336;2022-12-18T05:27:49;103004.84;;;-3.15;83.15
16595;BME280;8410;52.532;13.336;2022-12-18T05:30:17;103010.72;;;-3.55;82.94
16595;BME280;8410;52.532;13.336;2022-12-18T05:32:44;103009.84;;;-2.99;82.35
16595;BME280;8410;52.532;13.336;2022-12-18T05:35:11;103004.31;;;-2.46;81.24
16595;BME280;8410;52.532;13.336;2022-12-18T05:37:40;103017.22;;;-3.57;81.21
16595;BME280;8410;52.532;13.336;2022-12-18T05:40:10;103014.13;;;-4.25;84.15
16595;BME280;8410;52.532;13.336;2022-12-18T05:42:38;103009.94;;;-4.02;87.19
16595;BME280;8410;52.532;13.336;2022-12-18T05:45:06;103010.56;;;-3.57;86.73
16595;BME280;8410;52.532;13.336;2022-12-18T05:47:34;103008.66;;;-3.35;86.16
16595;BME280;8410;52.532;13.336;2022-12-18T05:50:01;103006.25;;;-2.77;84.07
16595;BME280;8410;52.532;13.336;2022-12-18T05:52:30;103016.50;;;-2.42;81.32
16595;BME280;8410;52.532;13.336;2022-12-18T05:54:59;103012.47;;;-2.07;79.54
16595;BME280;8410;52.532;13.336;2022-12-18T05:57:26;103008.59;;;-2.78;80.49
16595;BME280;8410;52.532;13.336;2022-12-18T05:59:53;103019.75;;;-3.01;83.33
16595;BME280;8410;52.532;13.336;2022-12-18T06:02:21;103016.56;;;-2.25;80.48
16595;BME280;8410;52.532;13.336;2022-12-18T06:04:48;103015.75;;;-2.08;79.68
16595;BME280;8410;52.532;13.336;2022-12-18T06:07:16;103023.22;;;-2.67;78.02
16595;BME280;8410;52.532;13.336;2022-12-18T06:09:43;103020.22;;;-1.96;79.93
16595;BME280;8410;52.532;13.336;2022-12-18T06:12:12;103024.41;;;-2.30;78.69
16595;BME280;8410;52.532;13.336;2022-12-18T06:14:40;103021.94;;;-1.71;78.99
16595;BME280;8410;52.532;13.336;2022-12-18T06:17:07;103023.06;;;-1.85;79.66
16595;BME280;8410;52.532;13.336;2022-12-18T06:19:35;103029.50;;;-1.53;78.15
16595;BME280;8410;52.532;13.336;2022-12-18T06:22:02;103021.50;;;-1.32;78.00
16595;BME280;8410;52.532;13.336;2022-12-18T06:24:30;103021.78;;;-1.29;76.22
16595;BME280;8410;52.532;13.336;2022-12-18T06:26:57;103023.72;;;-1.18;76.73
16595;BME280;8410;52.532;13.336;2022-12-18T06:29:26;103026.09;;;-1.45;78.35
16595;BME280;8410;52.532;13.336;2022-12-18T06:31:53;103038.13;;;-1.51;76.66
16595;BME280;8410;52.532;13.336;2022-12-18T06:34:21;103038.72;;;-2.47;78.60
16595;BME280;8410;52.532;13.336;2022-12-18T06:36:48;103048.63;;;-2.57;80.46
16595;BME280;8410;52.532;13.336;2022-12-18T06:39:16;103055.25;;;-2.08;80.31
16595;BME280;8410;52.532;13.336;2022-12-18T06:41:43;103058.31;;;-1.69;77.93
16595;BME280;8410;52.532;13.336;2022-12-18T06:44:11;103058.00;;;-1.63;77.35
16595;BME280;8410;52.532;13.336;2022-12-18T06:46:40;103065.41;;;-1.82;76.67
16595;BME280;8410;52.532;13.336;2022-12-18T06:49:08;103060.31;;;-2.00;78.25
16595;BME280;8410;52.532;13.336;2022-12-18T06:51:36;103074.84;;;-3.04;80.19
16595;BME280;8410;52.532;13.336;2022-12-18T06:54:03;103077.66;;;-2.85;80.60
16595;BME280;8410;52.532;13.336;2022-12-18T06:56:31;103093.69;;;-3.00;79.98
16595;BME280;8410;52.532;13.336;2022-12-18T06:58:58;103098.03;;;-2.59;80.23
16595;BME280;8410;52.532;13.336;2022-12-18T07:01:26;103103.34;;;-3.75;81.07
16595;BME280;8410;52.532;13.336;2022-12-18T07:03:56;103093.88;;;-3.46;84.49
16595;BME280;8410;52.532;13.336;2022-12-18T07:06:24;103082.97;;;-2.91;84.04
16595;BME280;8410;52.532;13.336;2022-12-18T07:08:53;103070.81;;;-2.12;81.16
16595;BME280;8410;52.532;13.336;2022-12-18T07:11:21;103066.38;;;-2.39;79.58
16595;BME280;8410;52.532;13.336;2022-12-18T07:13:49;103070.78;;;-1.70;78.33
16595;BME280;8410;52.532;13.336;2022-12-18T07:16:18;103074.91;;;-1.80;78.45
16595;BME280;8410;52.532;13.336;2022-12-18T07:18:51;103081.59;;;-2.22;77.62
16595;BME280;8410;52.532;13.336;2022-12-18T07:21:20;103072.91;;;-1.58;77.85
16595;BME280;8410;52.532;13.336;2022-12-18T07:23:48;103075.59;;;-1.30;77.22
16595;BME280;8410;52.532;13.336;2022-12-18T07:26:17;103074.56;;;-2.00;76.55
16595;BME280;8410;52.532;13.336;2022-12-18T07:28:46;103075.78;;;-1.88;78.51
16595;BME280;8410;52.532;13.336;2022-12-18T07:31:16;103078.25;;;-2.38;78.71
16595;BME280;8410;52.532;13.336;2022-12-18T07:33:44;103076.41;;;-1.82;79.31
16595;BME280;8410;52.532;13.336;2022-12-18T07:36:12;103087.78;;;-2.03;77.67
16595;BME280;8410;52.532;13.336;2022-12-18T07:38:42;103076.94;;;-1.93;77.65
16595;BME280;8410;52.532;13.336;2022-12-18T07:41:11;103078.25;;;-2.38;79.24
16595;BME280;8410;52.532;13.336;2022-12-18T07:43:39;103080.72;;;-2.47;79.61
16595;BME280;8410;52.532;13.336;2022-12-18T07:46:09;103083.44;;;-2.37;80.32
16595;BME280;8410;52.532;13.336;2022-12-18T07:48:38;103072.91;;;-1.40;78.63
16595;BME280;8410;52.532;13.336;2022-12-18T07:51:06;103069.94;;;-1.53;76.71
16595;BME280;8410;52.532;13.336;2022-12-18T07:53:35;103071.56;;;-1.45;77.23
16595;BME280;8410;52.532;13.336;2022-12-18T07:56:07;103065.47;;;-1.47;77.12
16595;BME280;8410;52.532;13.336;2022-12-18T07:58:54;103074.13;;;-1.19;76.53
16595;BME280;8410;52.532;13.336;2022-12-18T08:01:22;103072.91;;;-1.40;76.37
16595;BME280;8410;52.532;13.336;2022-12-18T08:03:50;103080.63;;;-1.47;77.52
16595;BME280;8410;52.532;13.336;2022-12-18T08:06:18;103091.41;;;-1.83;77.86
16595;BME280;8410;52.532;13.336;2022-12-18T08:08:50;103080.94;;;-2.37;79.21
16595;BME280;8410;52.532;13.336;2022-12-18T08:11:19;103092.31;;;-2.90;84.24
16595;BME280;8410;52.532;13.336;2022-12-18T08:13:47;103096.88;;;-1.87;82.02
16595;BME280;8410;52.532;13.336;2022-12-18T08:16:15;103080.97;;;-1.36;78.92
16595;BME280;8410;52.532;13.336;2022-12-18T08:18:42;103092.81;;;-1.52;79.19
16595;BME280;8410;52.532;13.336;2022-12-18T08:21:11;103103.47;;;-3.19;83.26
16595;BME280;8410;52.532;13.336;2022-12-18T08:23:39;103109.16;;;-3.45;83.45
16595;BME280;8410;52.532;13.336;2022-12-18T08:26:09;103108.13;;;-3.86;86.05
16595;BME280;8410;52.532;13.336;2022-12-18T08:28:38;103106.72;;;-2.89;86.69
16595;BME280;8410;52.532;13.336;2022-12-18T08:31:06;103090.53;;;-1.75;83.02
16595;BME280;8410;52.532;13.336;2022-12-18T08:33:38;103095.09;;;-1.20;79.94
16595;BME280;8410;52.532;13.336;2022-12-18T08:36:08;103104.19;;;-0.96;79.67
16595;BME280;8410;52.532;13.336;2022-12-18T08:38:36;103104.16;;;-1.05;77.20
16595;BME280;8410;52.532;13.336;2022-12-18T08:41:05;103106.25;;;-0.75;77.12
16595;BME280;8410;52.532;13.336;2022-12-18T08:43:33;103108.59;;;-1.37;77.13
16595;BME280;8410;52.532;13.336;2022-12-18T08:46:21;103107.28;;;-1.16;78.65
16595;BME280;8410;52.532;13.336;2022-12-18T08:48:51;103107.72;;;-1.03;76.88
16595;BME280;8410;52.532;13.336;2022-12-18T08:51:19;103113.25;;;-2.41;78.46
16595;BME280;8410;52.532;13.336;2022-12-18T08:53:47;103121.69;;;-1.24;78.90
16595;BME280;8410;52.532;13.336;2022-12-18T08:56:15;103127.19;;;-1.02;76.75
16595;BME280;8410;52.532;13.336;2022-12-18T08:58:43;103126.31;;;-1.11;78.61
16595;BME280;8410;52.532;13.336;2022-12-18T09:01:12;103132.88;;;-2.55;79.89
16595;BME280;8410;52.532;13.336;2022-12-18T09:03:41;103127.03;;;-1.80;79.71
16595;BME280;8410;52.532;13.336;2022-12-18T09:06:13;103134.91;;;-1.18;78.99
16595;BME280;8410;52.532;13.336;2022-12-18T09:08:41;103131.16;;;-1.47;77.92
16595;BME280;8410;52.532;13.336;2022-12-18T09:11:13;103137.00;;;-1.14;76.62
16595;BME280;8410;52.532;13.336;2022-12-18T09:13:41;103139.66;;;-1.21;78.29
16595;BME280;8410;52.532;13.336;2022-12-18T09:16:09;103144.03;;;-0.85;76.99
16595;BME280;8410;52.532;13.336;2022-12-18T09:18:36;103140.16;;;-0.81;76.53
16595;BME280;8410;52.532;13.336;2022-12-18T09:21:10;103142.25;;;-0.69;76.61
16595;BME280;8410;52.532;13.336;2022-12-18T09:23:39;103138.91;;;-1.37;76.83
16595;BME280;8410;52.532;13.336;2022-12-18T09:26:06;103137.25;;;-1.54;78.99
16595;BME280;8410;52.532;13.336;2022-12-18T09:28:34;103127.50;;;-1.16;78.81
16595;BME280;8410;52.532;13.336;2022-12-18T09:31:05;103144.03;;;-0.85;78.11
16595;BME280;8410;52.532;13.336;2022-12-18T09:33:34;103142.97;;;-0.52;76.34
16595;BME280;8410;52.532;13.336;2022-12-18T09:36:04;103141.94;;;-0.63;74.98
16595;BME280;8410;52.532;13.336;2022-12-18T09:38:34;103144.63;;;-0.61;75.70
16595;BME280;8410;52.532;13.336;2022-12-18T09:41:05;103140.44;;;-1.22;77.67
16595;BME280;8410;52.532;13.336;2022-12-18T09:43:35;103124.22;;;-1.83;76.78
16595;BME280;8410;52.532;13.336;2022-12-18T09:46:10;103136.53;;;-1.44;79.78
16595;BME280;8410;52.532;13.336;2022-12-18T09:48:42;103125.09;;;-1.32;77.68
16595;BME280;8410;52.532;13.336;2022-12-18T09:51:13;103118.13;;;-0.74;77.55
16595;BME280;8410;52.532;13.336;2022-12-18T09:53:47;103114.84;;;-1.07;83.95
16595;BME280;8410;52.532;13.336;2022-12-18T09:56:19;103105.38;;;-1.78;90.30
16595;BME280;8410;52.532;13.336;2022-12-18T09:58:53;103085.50;;;1.81;90.19
16595;BME280;8410;52.532;13.336;2022-12-18T10:01:24;103080.44;;;0.94;80.54
16595;BME280;8410;52.532;13.336;2022-12-18T10:04:08;103076.50;;;0.59;88.11
16595;BME280;8410;52.532;13.336;2022-12-18T10:06:40;103071.13;;;-0.72;88.19
16595;BME280;8410;52.532;13.336;2022-12-18T10:09:16;103049.63;;;2.28;92.75
16595;BME280;8410;52.532;13.336;2022-12-18T10:11:51;103070.13;;;0.27;81.89
16595;BME280;8410;52.532;13.336;2022-12-18T10:14:25;103049.63;;;4.21;78.87
16595;BME280;8410;52.532;13.336;2022-12-18T10:16:59;103050.28;;;3.30;77.19
16595;BME280;8410;52.532;13.336;2022-12-18T10:19:39;103057.06;;;2.87;72.79
16595;BME280;8410;52.532;13.336;2022-12-18T10:22:26;103069.69;;;1.65;71.12
16595;BME280;8410;52.532;13.336;2022-12-18T10:25:04;103061.94;;;1.24;72.41
16595;BME280;8410;52.532;13.336;2022-12-18T10:27:34;103068.72;;;1.15;72.13
16595;BME280;8410;52.532;13.336;2022-12-18T10:30:12;103078.16;;;0.78;72.50
16595;BME280;8410;52.532;13.336;2022-12-18T10:32:40;103073.47;;;0.82;75.21
16595;BME280;8410;52.532;13.336;2022-12-18T10:35:15;103068.19;;;0.33;74.51
16595;BME280;8410;52.532;13.336;2022-12-18T10:38:02;103060.97;;;0.84;74.13
16595;BME280;8410;52.532;13.336;2022-12-18T10:40:31;103055.88;;;0.46;74.50
16595;BME280;8410;52.532;13.336;2022-12-18T10:43:12;103060.78;;;-0.47;77.15
16595;BME280;8410;52.532;13.336;2022-12-18T10:45:40;103053.72;;;-0.24;78.10
16595;BME280;8410;52.532;13.336;2022-12-18T10:48:18;103054.44;;;-0.70;77.77
16595;BME280;8410;52.532;13.336;2022-12-18T10:50:48;103047.53;;;-0.45;79.12
16595;BME280;8410;52.532;13.336;2022-12-18T10:53:37;103039.16;;;0.02;79.01
16595;BME280;8410;52.532;13.336;2022-12-18T10:56:06;103033.44;;;0.32;77.22
16595;BME280;8410;52.532;13.336;2022-12-18T10:58:36;103033.84;;;0.17;77.59
16595;BME280;8410;52.532;13.336;2022-12-18T11:01:07;103034.56;;;0.44;78.01
16595;BME280;8410;52.532;13.336;2022-12-18T11:03:37;103023.34;;;0.70;75.83
16595;BME280;8410;52.532;13.336;2022-12-18T11:06:07;103030.03;;;0.50;76.69
16595;BME280;8410;52.532;13.336;2022-12-18T11:08:35;103020.31;;;0.36;77.08
16595;BME280;8410;52.532;13.336;2022-12-18T11:11:15;103024.00;;;0.58;76.00
16595;BME280;8410;52.532;13.336;2022-12-18T11:13:54;103025.47;;;0.27;76.46
16595;BME280;8410;52.532;13.336;2022-12-18T11:16:25;103036.22;;;0.62;76.63
16595;BME280;8410;52.532;13.336;2022-12-18T11:18:53;103031.13;;;0.25;77.44
16595;BME280;8410;52.532;13.336;2022-12-18T11:21:20;103036.56;;;0.38;76.48
16595;BME280;8410;52.532;13.336;2022-12-18T11:23:50;103030.31;;;0.53;77.69
16595;BME280;8410;52.532;13.336;2022-12-18T11:26:20;103030.38;;;-0.75;77.06
16595;BME280;8410;52.532;13.336;2022-12-18T11:28:50;103023.44;;;-0.50;82.21
16595;BME280;8410;52.532;13.336;2022-12-18T11:31:23;103027.44;;;0.40;78.96
16595;BME280;8410;52.532;13.336;2022-12-18T11:34:01;103016.13;;;0.74;77.64
16595;BME280;8410;52.532;13.336;2022-12-18T11:36:52;103021.78;;;-0.85;80.36
16595;BME280;8410;52.532;13.336;2022-12-18T11:39:22;103020.84;;;-0.77;79.93
16595;BME280;8410;52.532;13.336;2022-12-18T11:41:55;103029.00;;;-0.71;81.03
16595;BME280;8410;52.532;13.336;2022-12-18T11:44:46;103031.59;;;-0.97;81.99
16595;BME280;8410;52.532;13.336;2022-12-18T11:47:21;103043.91;;;-0.83;83.36
16595;BME280;8410;52.532;13.336;2022-12-18T11:49:52;103048.53;;;-0.87;83.17
16595;BME280;8410;52.532;13.336;2022-12-18T11:52:24;103045.66;;;-0.64;82.30
16595;BME280;8410;52.532;13.336;2022-12-18T11:54:56;103051.78;;;-0.89;81.20
16595;BME280;8410;52.532;13.336;2022-12-18T11:57:33;103052.31;;;-0.48;82.21
16595;BME280;8410;52.532;13.336;2022-12-18T12:00:09;103061.66;;;-0.02;80.80
16595;BME280;8410;52.532;13.336;2022-12-18T12:02:48;103063.31;;;0.26;78.88
16595;BME280;8410;52.532;13.336;2022-12-18T12:05:34;103061.47;;;-0.31;81.73
16595;BME280;8410;52.532;13.336;2022-12-18T12:08:10;103061.81;;;-0.36;80.59
16595;BME280;8410;52.532;13.336;2022-12-18T12:10:49;103059.19;;;-0.10;81.29
16595;BME280;8410;52.532;13.336;2022-12-18T12:13:33;103070.09;;;0.35;79.64
16595;BME280;8410;52.532;13.336;2022-12-18T12:16:13;103064.94;;;-0.39;78.07
16595;BME280;8410;52.532;13.336;2022-12-18T12:18:55;103071.69;;;-0.48;82.03
16595;BME280;8410;52.532;13.336;2022-12-18T12:21:28;103062.00;;;-0.07;78.79
16595;BME280;8410;52.532;13.336;2022-12-18T12:24:06;103059.63;;;-0.14;79.86
16595;BME280;8410;52.532;13.336;2022-12-18T12:26:43;103064.63;;;0.03;80.03
16595;BME280;8410;52.532;13.336;2022-12-18T12:29:29;103079.78;;;-1.13;79.81
16595;BME280;8410;52.532;13.336;2022-12-18T12:32:10;103076.16;;;-1.59;84.72
16595;BME280;8410;52.532;13.336;2022-12-18T12:34:46;103079.63;;;-0.80;84.13
16595;BME280;8410;52.532;13.336;2022-12-18T12:37:34;103089.75;;;-1.06;83.55
16595;BME280;8410;52.532;13.336;2022-12-18T12:40:06;103074.22;;;-0.48;82.92
16595;BME280;8410;52.532;13.336;2022-12-18T12:42:57;103074.13;;;-0.31;82.14
16595;BME280;8410;52.532;13.336;2022-12-18T12:45:47;103087.50;;;-1.12;83.09
16595;BME280;8410;52.532;13.336;2022-12-18T12:48:22;103070.03;;;-0.56;83.70
16595;BME280;8410;52.532;13.336;2022-12-18T12:50:53;103067.59;;;0.27;81.08
16595;BME280;8410;52.532;13.336;2022-12-18T12:53:26;103053.19;;;-0.47;79.45
16595;BME280;8410;52.532;13.336;2022-12-18T12:55:57;103036.72;;;-0.70;79.53
16595;BME280;8410;52.532;13.336;2022-12-18T12:58:31;103031.56;;;-0.89;80.84
16595;BME280;8410;52.532;13.336;2022-12-18T13:01:09;103031.44;;;-0.90;84.03
16595;BME280;8410;52.532;13.336;2022-12-18T13:03:55;103025.22;;;-1.46;86.37
16595;BME280;8410;52.532;13.336;2022-12-18T13:06:35;103029.09;;;-1.15;86.16
16595;BME280;8410;52.532;13.336;2022-12-18T13:09:10;103013.50;;;-0.20;83.10
16595;BME280;8410;52.532;13.336;2022-12-18T13:11:39;103028.00;;;-1.69;85.90